createdAt,value
2018-01-18T00:00:34.883Z,997.34
2018-01-18T00:01:44.350Z,997.33
2018-01-18T00:02:54.125Z,997.33
2018-01-18T00:04:03.897Z,997.46
2018-01-18T00:05:13.103Z,997.28
2018-01-18T00:06:23.105Z,997.28
2018-01-18T00:07:32.822Z,997.41
2018-01-18T00:08:42.292Z,997.28
2018-01-18T00:09:52.040Z,997.22
2018-01-18T00:11:01.765Z,997.2
2018-01-18T00:12:11.493Z,997.14
2018-01-18T00:13:21.511Z,997.14
2018-01-18T00:14:30.979Z,997.22
2018-01-18T00:15:40.430Z,997.18
2018-01-18T00:16:50.463Z,997.18
2018-01-18T00:18:00.201Z,997.18
2018-01-18T00:19:09.656Z,997.11
2018-01-18T00:20:19.121Z,997.05
2018-01-18T00:21:28.088Z,997.14
2018-01-18T00:22:37.558Z,997.07
2018-01-18T00:23:46.506Z,997.1
2018-01-18T00:24:56.225Z,997.07
2018-01-18T00:26:05.456Z,997.17
2018-01-18T00:27:15.231Z,996.97
2018-01-18T00:28:24.689Z,996.98
2018-01-18T00:29:34.177Z,996.96
2018-01-18T00:30:43.629Z,996.93
2018-01-18T00:31:53.169Z,996.9
2018-01-18T00:33:02.496Z,996.92
2018-01-18T00:34:12.233Z,996.81
2018-01-18T00:35:21.722Z,996.66
2018-01-18T00:36:31.210Z,996.72
2018-01-18T00:37:41.200Z,996.64
2018-01-18T00:38:50.656Z,996.71
2018-01-18T00:40:00.128Z,996.77
2018-01-18T00:41:09.338Z,996.76
2018-01-18T00:42:19.078Z,996.79
2018-01-18T00:43:29.071Z,996.76
2018-01-18T00:44:38.802Z,996.82
2018-01-18T00:45:48.258Z,996.82
2018-01-18T00:46:57.456Z,996.72
2018-01-18T00:48:07.173Z,996.65
2018-01-18T00:49:16.098Z,996.65
2018-01-18T00:50:25.823Z,996.65
2018-01-18T00:51:35.553Z,996.54
2018-01-18T00:52:45.016Z,996.56
2018-01-18T00:53:54.213Z,996.58
2018-01-18T00:55:04.205Z,996.51
2018-01-18T00:56:13.409Z,996.39
2018-01-18T00:57:22.889Z,996.37
2018-01-18T00:58:32.354Z,996.39
2018-01-18T00:59:41.854Z,996.43
2018-01-18T01:00:51.076Z,996.3
2018-01-18T01:02:01.073Z,996.21
2018-01-18T01:03:10.800Z,996.3
2018-01-18T01:04:20.567Z,996.25
2018-01-18T01:05:30.085Z,996.15
2018-01-18T01:06:39.821Z,996.08
2018-01-18T01:07:49.043Z,996.02
2018-01-18T01:08:57.968Z,995.97
2018-01-18T01:10:07.960Z,995.93
2018-01-18T01:11:17.947Z,995.95
2018-01-18T01:12:27.326Z,995.86
2018-01-18T01:13:36.815Z,995.89
2018-01-18T01:14:46.278Z,995.72
2018-01-18T01:15:56.164Z,995.74
2018-01-18T01:17:05.705Z,995.59
2018-01-18T01:18:15.170Z,995.66
2018-01-18T01:19:24.371Z,995.65
2018-01-18T01:20:33.578Z,995.53
2018-01-18T01:21:43.313Z,995.47
2018-01-18T01:22:52.788Z,995.47
2018-01-18T01:24:02.300Z,995.49
2018-01-18T01:25:11.763Z,995.47
2018-01-18T01:26:21.231Z,995.44
2018-01-18T01:27:30.430Z,995.41
2018-01-18T01:28:40.437Z,995.48
2018-01-18T01:29:50.435Z,995.41
2018-01-18T01:31:00.200Z,995.44
2018-01-18T01:32:09.918Z,995.53
2018-01-18T01:33:19.951Z,995.54
2018-01-18T01:34:29.162Z,995.45
2018-01-18T01:35:38.890Z,995.46
2018-01-18T01:36:48.648Z,995.43
2018-01-18T01:37:57.846Z,995.49
2018-01-18T01:39:07.999Z,995.42
2018-01-18T01:40:17.478Z,995.45
2018-01-18T01:41:27.001Z,995.35
2018-01-18T01:42:36.264Z,995.33
2018-01-18T01:43:46.058Z,995.25
2018-01-18T01:44:56.042Z,995.36
2018-01-18T01:46:05.277Z,995.16
2018-01-18T01:47:15.314Z,995.06
2018-01-18T01:48:24.879Z,995.07
2018-01-18T01:49:34.728Z,994.93
2018-01-18T01:50:44.346Z,994.89
2018-01-18T01:51:54.127Z,994.76
2018-01-18T01:53:04.200Z,994.76
2018-01-18T01:54:13.680Z,994.8
2018-01-18T01:55:22.872Z,994.7
2018-01-18T01:56:32.622Z,994.67
2018-01-18T01:57:42.648Z,994.61
2018-01-18T01:58:51.867Z,994.62
2018-01-18T02:00:01.939Z,994.57
2018-01-18T02:01:11.695Z,994.5
2018-01-18T02:02:21.745Z,994.49
2018-01-18T02:03:31.811Z,994.48
2018-01-18T02:04:41.007Z,994.51
2018-01-18T02:05:49.933Z,994.42
2018-01-18T02:06:59.412Z,994.51
2018-01-18T02:08:09.130Z,994.52
2018-01-18T02:09:19.143Z,994.55
2018-01-18T02:10:28.609Z,994.44
2018-01-18T02:11:38.609Z,994.34
2018-01-18T02:12:48.100Z,994.31
2018-01-18T02:13:57.322Z,994.29
2018-01-18T02:15:07.310Z,994.31
2018-01-18T02:16:17.049Z,994.06
2018-01-18T02:17:26.259Z,994.27
2018-01-18T02:18:36.260Z,994.13
2018-01-18T02:19:45.989Z,993.98
2018-01-18T02:20:55.219Z,994.07
2018-01-18T02:22:04.975Z,994.04
2018-01-18T02:23:14.734Z,993.83
2018-01-18T02:24:24.188Z,993.89
2018-01-18T02:25:34.263Z,993.54
2018-01-18T02:26:44.012Z,993.88
2018-01-18T02:27:53.281Z,993.77
2018-01-18T02:29:02.746Z,993.71
2018-01-18T02:30:12.229Z,993.65
2018-01-18T02:31:21.715Z,993.51
2018-01-18T02:32:31.737Z,993.46
2018-01-18T02:33:41.595Z,993.49
2018-01-18T02:34:50.805Z,993.36
2018-01-18T02:36:00.268Z,993.34
2018-01-18T02:37:10.176Z,993.23
2018-01-18T02:38:19.646Z,993.25
2018-01-18T02:39:28.957Z,993.26
2018-01-18T02:40:38.576Z,993.34
2018-01-18T02:41:48.170Z,993.4
2018-01-18T02:42:58.237Z,993.23
2018-01-18T02:44:07.707Z,993.23
2018-01-18T02:45:17.927Z,993.06
2018-01-18T02:46:27.178Z,993.04
2018-01-18T02:47:37.010Z,993.05
2018-01-18T02:48:47.879Z,992.98
2018-01-18T02:49:57.956Z,992.68
2018-01-18T02:51:07.683Z,992.69
2018-01-18T02:52:17.650Z,992.85
2018-01-18T02:53:27.499Z,992.89
2018-01-18T02:54:37.026Z,992.8
2018-01-18T02:55:46.575Z,992.75
2018-01-18T02:56:56.434Z,992.58
2018-01-18T02:58:06.186Z,992.59
2018-01-18T02:59:15.644Z,992.64
2018-01-18T03:00:24.852Z,992.68
2018-01-18T03:01:34.987Z,992.54
2018-01-18T03:02:44.720Z,992.42
2018-01-18T03:03:53.937Z,992.45
2018-01-18T03:05:03.555Z,992.38
2018-01-18T03:06:12.502Z,992.29
2018-01-18T03:07:22.270Z,992.18
2018-01-18T03:08:32.028Z,992.11
2018-01-18T03:09:41.274Z,992.14
2018-01-18T03:10:51.006Z,992.04
2018-01-18T03:12:00.730Z,992.09
2018-01-18T03:13:09.978Z,992
2018-01-18T03:14:19.730Z,991.99
2018-01-18T03:15:29.485Z,991.92
2018-01-18T03:16:38.743Z,991.89
2018-01-18T03:17:47.681Z,991.82
2018-01-18T03:18:57.216Z,991.83
2018-01-18T03:20:07.045Z,991.55
2018-01-18T03:21:16.825Z,991.45
2018-01-18T03:22:26.575Z,991.7
2018-01-18T03:23:35.784Z,991.5
2018-01-18T03:24:44.996Z,991.55
2018-01-18T03:25:54.751Z,991.46
2018-01-18T03:27:04.804Z,991.4
2018-01-18T03:28:14.657Z,991.33
2018-01-18T03:29:24.224Z,991.3
2018-01-18T03:30:33.704Z,991.17
2018-01-18T03:31:43.499Z,991.29
2018-01-18T03:32:52.825Z,991
2018-01-18T03:34:02.569Z,990.93
2018-01-18T03:35:12.139Z,990.94
2018-01-18T03:36:21.910Z,990.8
2018-01-18T03:37:31.933Z,990.73
2018-01-18T03:38:41.656Z,990.66
2018-01-18T03:39:51.373Z,990.65
2018-01-18T03:41:00.332Z,990.69
2018-01-18T03:42:09.305Z,990.58
2018-01-18T03:43:19.031Z,990.44
2018-01-18T03:44:28.230Z,990.38
2018-01-18T03:45:37.749Z,990.34
2018-01-18T03:46:47.489Z,990.26
2018-01-18T03:47:56.954Z,990.18
2018-01-18T03:49:06.689Z,990.12
2018-01-18T03:50:15.882Z,989.9
2018-01-18T03:51:25.340Z,989.88
2018-01-18T03:52:34.856Z,990.05
2018-01-18T03:53:44.596Z,989.73
2018-01-18T03:54:54.058Z,989.69
2018-01-18T03:56:03.798Z,989.52
2018-01-18T03:57:13.256Z,989.48
2018-01-18T03:58:22.993Z,989.47
2018-01-18T03:59:32.725Z,989.26
2018-01-18T04:00:41.923Z,989.27
2018-01-18T04:01:51.127Z,989.14
2018-01-18T04:03:00.591Z,989
2018-01-18T04:04:10.062Z,989.03
2018-01-18T04:05:19.523Z,988.93
2018-01-18T04:06:29.253Z,988.72
2018-01-18T04:07:38.730Z,988.86
2018-01-18T04:08:48.461Z,988.51
2018-01-18T04:09:57.924Z,988.43
2018-01-18T04:11:07.933Z,988.44
2018-01-18T04:12:17.145Z,988.47
2018-01-18T04:13:26.928Z,988.33
2018-01-18T04:14:36.656Z,988.53
2018-01-18T04:15:46.527Z,988.22
2018-01-18T04:16:56.007Z,988.23
2018-01-18T04:18:05.465Z,988.14
2018-01-18T04:19:14.939Z,988.07
2018-01-18T04:20:24.421Z,987.9
2018-01-18T04:21:34.180Z,987.85
2018-01-18T04:22:43.648Z,987.79
2018-01-18T04:23:52.571Z,987.66
2018-01-18T04:25:02.038Z,987.53
2018-01-18T04:26:11.240Z,987.52
2018-01-18T04:27:20.721Z,987.57
2018-01-18T04:28:29.907Z,987.56
2018-01-18T04:29:39.697Z,987.41
2018-01-18T04:30:48.927Z,987.4
2018-01-18T04:31:58.384Z,987.17
2018-01-18T04:33:07.902Z,987.21
2018-01-18T04:34:17.642Z,987.14
2018-01-18T04:35:27.701Z,987.12
2018-01-18T04:36:37.181Z,987.14
2018-01-18T04:37:46.651Z,986.95
2018-01-18T04:38:56.105Z,986.84
2018-01-18T04:40:05.837Z,986.68
2018-01-18T04:41:14.765Z,986.61
2018-01-18T04:42:24.233Z,986.55
2018-01-18T04:43:33.709Z,986.23
2018-01-18T04:44:43.182Z,986.33
2018-01-18T04:45:52.905Z,986.17
2018-01-18T04:47:02.655Z,986.22
2018-01-18T04:48:11.850Z,986.1
2018-01-18T04:49:21.317Z,986.06
2018-01-18T04:50:31.050Z,986.17
2018-01-18T04:51:39.985Z,986.08
2018-01-18T04:52:49.714Z,985.82
2018-01-18T04:53:59.460Z,985.82
2018-01-18T04:55:09.186Z,985.61
2018-01-18T04:56:18.929Z,985.77
2018-01-18T04:57:28.445Z,985.43
2018-01-18T04:58:37.372Z,985.56
2018-01-18T04:59:47.119Z,985.63
2018-01-18T05:00:57.109Z,985.5
2018-01-18T05:02:06.567Z,985.5
2018-01-18T05:03:16.049Z,985.65
2018-01-18T05:04:26.064Z,985.47
2018-01-18T05:05:36.061Z,985.37
2018-01-18T05:06:46.071Z,985.29
2018-01-18T05:07:55.536Z,985.34
2018-01-18T05:09:05.009Z,985.19
2018-01-18T05:10:14.748Z,985.17
2018-01-18T05:11:24.745Z,985.05
2018-01-18T05:12:34.481Z,985.07
2018-01-18T05:13:44.365Z,985.06
2018-01-18T05:14:54.087Z,984.87
2018-01-18T05:16:03.569Z,984.89
2018-01-18T05:17:12.505Z,984.76
2018-01-18T05:18:21.980Z,984.79
2018-01-18T05:19:31.714Z,984.92
2018-01-18T05:20:41.453Z,984.94
2018-01-18T05:21:51.202Z,984.8
2018-01-18T05:23:00.975Z,984.51
2018-01-18T05:24:09.923Z,984.63
2018-01-18T05:25:19.916Z,984.46
2018-01-18T05:26:29.107Z,984.42
2018-01-18T05:27:38.836Z,984.24
2018-01-18T05:28:48.311Z,984.25
2018-01-18T05:29:57.515Z,984.3
2018-01-18T05:31:06.724Z,984.32
2018-01-18T05:32:15.937Z,984.06
2018-01-18T05:33:25.945Z,983.98
2018-01-18T05:34:35.421Z,984.07
2018-01-18T05:35:44.895Z,984.04
2018-01-18T05:36:54.096Z,983.87
2018-01-18T05:38:03.821Z,983.82
2018-01-18T05:39:13.338Z,983.96
2018-01-18T05:40:23.409Z,983.57
2018-01-18T05:41:33.412Z,983.93
2018-01-18T05:42:42.604Z,983.62
2018-01-18T05:43:52.069Z,983.7
2018-01-18T05:45:01.535Z,983.65
2018-01-18T05:46:10.890Z,983.61
2018-01-18T05:47:20.458Z,983.53
2018-01-18T05:48:30.266Z,983.3
2018-01-18T05:49:39.993Z,983.36
2018-01-18T05:50:50.018Z,983.31
2018-01-18T05:51:59.764Z,983.21
2018-01-18T05:53:09.061Z,983.19
2018-01-18T05:54:18.006Z,983.32
2018-01-18T05:55:26.952Z,983.1
2018-01-18T05:56:36.965Z,983.19
2018-01-18T05:57:46.438Z,983.54
2018-01-18T05:58:55.751Z,983.4
2018-01-18T06:00:05.778Z,983.12
2018-01-18T06:01:15.231Z,982.9
2018-01-18T06:02:24.957Z,983.17
2018-01-18T06:03:34.788Z,982.93
2018-01-18T06:04:44.793Z,983.14
2018-01-18T06:05:54.785Z,982.82
2018-01-18T06:07:04.786Z,982.56
2018-01-18T06:08:14.532Z,982.65
2018-01-18T06:09:23.619Z,982.82
2018-01-18T06:10:32.832Z,982.52
2018-01-18T06:11:42.845Z,982.86
2018-01-18T06:12:52.056Z,982.67
2018-01-18T06:14:01.277Z,982.7
2018-01-18T06:15:10.519Z,982.52
2018-01-18T06:16:20.223Z,982.66
2018-01-18T06:17:29.691Z,982.52
2018-01-18T06:18:39.162Z,982.32
2018-01-18T06:19:48.703Z,982.42
2018-01-18T06:20:58.343Z,982.57
2018-01-18T06:22:08.700Z,982.33
2018-01-18T06:23:18.631Z,981.66
2018-01-18T06:24:28.728Z,981.92
2018-01-18T06:25:38.749Z,982.06
2018-01-18T06:26:48.745Z,982.46
2018-01-18T06:27:58.272Z,982.19
2018-01-18T06:29:07.743Z,981.77
2018-01-18T06:30:17.840Z,982.03
2018-01-18T06:31:27.844Z,981.98
2018-01-18T06:32:37.579Z,981.78
2018-01-18T06:33:46.782Z,981.93
2018-01-18T06:34:56.282Z,981.69
2018-01-18T06:36:06.417Z,981.96
2018-01-18T06:37:15.884Z,981.63
2018-01-18T06:38:25.378Z,981.6
2018-01-18T06:39:34.926Z,981.73
2018-01-18T06:40:44.710Z,981.82
2018-01-18T06:41:54.264Z,981.42
2018-01-18T06:43:03.783Z,981.08
2018-01-18T06:44:14.013Z,981.5
2018-01-18T06:45:24.178Z,981.64
2018-01-18T06:46:33.936Z,981.73
2018-01-18T06:47:43.681Z,981.81
2018-01-18T06:48:53.430Z,981.72
2018-01-18T06:50:03.439Z,981.37
2018-01-18T06:51:12.672Z,981.54
2018-01-18T06:52:21.886Z,981.6
2018-01-18T06:53:31.668Z,981.39
2018-01-18T06:54:41.148Z,981.17
2018-01-18T06:55:50.688Z,981.42
2018-01-18T06:57:00.620Z,981.35
2018-01-18T06:58:10.404Z,981.49
2018-01-18T06:59:20.143Z,981.44
2018-01-18T07:00:30.163Z,981.75
2018-01-18T07:01:39.936Z,981.3
2018-01-18T07:02:49.694Z,981.52
2018-01-18T07:03:59.159Z,981.12
2018-01-18T07:05:08.671Z,981.27
2018-01-18T07:06:18.146Z,981.26
2018-01-18T07:07:27.609Z,981.33
2018-01-18T07:08:37.627Z,981.49
2018-01-18T07:09:47.158Z,981.19
2018-01-18T07:10:56.874Z,981.18
2018-01-18T07:12:06.549Z,981.25
2018-01-18T07:13:16.531Z,981.25
2018-01-18T07:14:26.135Z,980.92
2018-01-18T07:15:35.750Z,980.87
2018-01-18T07:16:45.323Z,981.53
2018-01-18T07:17:55.095Z,981.14
2018-01-18T07:19:04.646Z,981.41
2018-01-18T07:20:13.886Z,981.18
2018-01-18T07:21:23.692Z,980.92
2018-01-18T07:22:33.698Z,980.7
2018-01-18T07:23:43.444Z,980.85
2018-01-18T07:24:52.947Z,980.79
2018-01-18T07:26:02.943Z,980.67
2018-01-18T07:27:12.690Z,980.69
2018-01-18T07:28:22.754Z,980.9
2018-01-18T07:29:32.751Z,980.44
2018-01-18T07:30:41.690Z,980.63
2018-01-18T07:31:51.272Z,980.5
2018-01-18T07:33:00.756Z,980.32
2018-01-18T07:34:10.235Z,980.51
2018-01-18T07:35:19.744Z,980.54
2018-01-18T07:36:29.499Z,980.58
2018-01-18T07:37:39.490Z,980.47
2018-01-18T07:38:48.954Z,980.4
2018-01-18T07:39:58.995Z,980.56
2018-01-18T07:41:08.226Z,980.28
2018-01-18T07:42:18.005Z,980.22
2018-01-18T07:43:28.050Z,980.57
2018-01-18T07:44:37.584Z,980.3
2018-01-18T07:45:47.082Z,980.14
2018-01-18T07:46:56.543Z,980.14
2018-01-18T07:48:06.289Z,980.16
2018-01-18T07:49:15.609Z,980.23
2018-01-18T07:50:24.554Z,980.34
2018-01-18T07:51:34.382Z,980.54
2018-01-18T07:52:44.122Z,980.16
2018-01-18T07:53:53.485Z,980.45
2018-01-18T07:55:03.548Z,980.13
2018-01-18T07:56:13.437Z,980.02
2018-01-18T07:57:23.051Z,980.3
2018-01-18T07:58:32.855Z,980.4
2018-01-18T07:59:42.888Z,979.95
2018-01-18T08:00:52.384Z,979.96
2018-01-18T08:02:02.466Z,980.12
2018-01-18T08:03:11.928Z,980.03
2018-01-18T08:04:21.501Z,980.03
2018-01-18T08:05:31.273Z,980
2018-01-18T08:06:41.025Z,980.32
2018-01-18T08:07:50.859Z,980.2
2018-01-18T08:09:00.056Z,979.82
2018-01-18T08:10:09.539Z,980.09
2018-01-18T08:11:19.296Z,979.89
2018-01-18T08:12:28.606Z,979.85
2018-01-18T08:13:38.394Z,979.8
2018-01-18T08:14:48.243Z,979.67
2018-01-18T08:15:57.537Z,979.72
2018-01-18T08:17:08.196Z,979.55
2018-01-18T08:18:17.456Z,979.67
2018-01-18T08:19:27.091Z,979.94
2018-01-18T08:20:36.641Z,979.94
2018-01-18T08:21:46.312Z,979.69
2018-01-18T08:22:56.162Z,979.73
2018-01-18T08:24:06.034Z,979.9
2018-01-18T08:25:15.931Z,979.32
2018-01-18T08:26:25.698Z,979.62
2018-01-18T08:27:35.737Z,980.03
2018-01-18T08:28:45.669Z,979.66
2018-01-18T08:29:54.864Z,979.73
2018-01-18T08:31:04.373Z,979.44
2018-01-18T08:32:13.570Z,979.62
2018-01-18T08:33:23.049Z,979.92
2018-01-18T08:34:33.066Z,979.51
2018-01-18T08:35:42.537Z,979.53
2018-01-18T08:36:52.546Z,979.53
2018-01-18T08:38:01.495Z,979.44
2018-01-18T08:39:10.969Z,979.47
2018-01-18T08:40:20.494Z,979.59
2018-01-18T08:41:30.617Z,979.41
2018-01-18T08:42:39.914Z,979.37
2018-01-18T08:43:49.788Z,979.51
2018-01-18T08:44:59.103Z,979.79
2018-01-18T08:46:08.970Z,979.32
2018-01-18T08:47:17.923Z,979.2
2018-01-18T08:48:27.660Z,979.48
2018-01-18T08:49:37.142Z,979.34
2018-01-18T08:50:46.925Z,979.59
2018-01-18T08:51:56.612Z,979.29
2018-01-18T08:53:05.977Z,979.73
2018-01-18T08:54:15.526Z,979.27
2018-01-18T08:55:24.621Z,979.32
2018-01-18T08:56:33.990Z,979.36
2018-01-18T08:57:43.472Z,979.01
2018-01-18T08:58:52.474Z,979.17
2018-01-18T09:00:01.685Z,979.68
2018-01-18T09:01:11.714Z,979.06
2018-01-18T09:02:21.191Z,979.18
2018-01-18T09:03:31.432Z,979.27
2018-01-18T09:04:40.803Z,979.03
2018-01-18T09:05:50.540Z,979.11
2018-01-18T09:07:00.273Z,979.11
2018-01-18T09:08:10.024Z,979.16
2018-01-18T09:09:19.226Z,978.98
2018-01-18T09:10:28.961Z,979.47
2018-01-18T09:11:38.428Z,979.12
2018-01-18T09:12:48.169Z,979.37
2018-01-18T09:13:57.968Z,979.35
2018-01-18T09:15:07.726Z,979.21
2018-01-18T09:16:17.750Z,980.45
2018-01-18T09:17:27.775Z,979.39
2018-01-18T09:18:37.231Z,979.71
2018-01-18T09:19:46.495Z,979.4
2018-01-18T09:20:56.044Z,979.5
2018-01-18T09:22:05.430Z,979.42
2018-01-18T09:23:14.975Z,979.1
2018-01-18T09:24:24.715Z,979.63
2018-01-18T09:25:34.169Z,979.57
2018-01-18T09:26:43.948Z,980.13
2018-01-18T09:27:53.935Z,979.36
2018-01-18T09:29:03.748Z,979.88
2018-01-18T09:30:13.218Z,979.53
2018-01-18T09:31:22.953Z,979.48
2018-01-18T09:32:32.969Z,980
2018-01-18T09:33:42.710Z,979.87
2018-01-18T09:34:52.186Z,979.86
2018-01-18T09:36:01.700Z,979.79
2018-01-18T09:37:11.236Z,979.57
2018-01-18T09:38:20.875Z,980.56
2018-01-18T09:39:30.350Z,980.46
2018-01-18T09:40:39.949Z,980.59
2018-01-18T09:41:49.959Z,979.83
2018-01-18T09:42:59.434Z,981.33
2018-01-18T09:44:08.644Z,980.42
2018-01-18T09:45:17.633Z,980.56
2018-01-18T09:46:27.107Z,980.46
2018-01-18T09:47:36.588Z,981.66
2018-01-18T09:48:46.327Z,980.46
2018-01-18T09:49:56.093Z,980.6
2018-01-18T09:51:05.302Z,980.33
2018-01-18T09:52:15.059Z,980.71
2018-01-18T09:53:25.088Z,980.96
2018-01-18T09:54:34.564Z,980.56
2018-01-18T09:55:44.049Z,981.02
2018-01-18T09:56:53.529Z,980.79
2018-01-18T09:58:03.559Z,980.89
2018-01-18T09:59:13.350Z,980.63
2018-01-18T10:00:23.088Z,980.89
2018-01-18T10:01:32.979Z,982.21
2018-01-18T10:02:42.853Z,980.55
2018-01-18T10:03:52.343Z,981
2018-01-18T10:05:02.342Z,980.78
2018-01-18T10:06:11.548Z,980.96
2018-01-18T10:07:21.036Z,981.87
2018-01-18T10:08:30.504Z,981.19
2018-01-18T10:09:39.462Z,980.9
2018-01-18T10:10:48.408Z,981.32
2018-01-18T10:11:57.652Z,981.21
2018-01-18T10:13:07.142Z,981.4
2018-01-18T10:14:16.353Z,981.3
2018-01-18T10:15:25.565Z,981.16
2018-01-18T10:16:35.046Z,982.17
2018-01-18T10:17:43.994Z,982.02
2018-01-18T10:18:53.231Z,981.92
2018-01-18T10:20:03.313Z,981.85
2018-01-18T10:21:12.666Z,982.04
2018-01-18T10:22:21.631Z,981.58
2018-01-18T10:23:31.114Z,982.23
2018-01-18T10:24:40.872Z,981.93
2018-01-18T10:25:50.139Z,982.68
2018-01-18T10:26:59.624Z,982.25
2018-01-18T10:28:09.355Z,984.2
2018-01-18T10:29:19.213Z,982.31
2018-01-18T10:30:29.049Z,982.44
2018-01-18T10:31:38.523Z,982.27
2018-01-18T10:32:48.005Z,982.6
2018-01-18T10:33:57.477Z,982.71
2018-01-18T10:35:07.025Z,982.53
2018-01-18T10:36:16.496Z,983.08
2018-01-18T10:37:25.706Z,982.89
2018-01-18T10:38:35.281Z,983.47
2018-01-18T10:39:45.178Z,982.95
2018-01-18T10:40:54.856Z,982.76
2018-01-18T10:42:04.585Z,982.48
2018-01-18T10:43:14.584Z,983.38
2018-01-18T10:44:23.524Z,984.33
2018-01-18T10:45:33.256Z,982.65
2018-01-18T10:46:42.891Z,983.11
2018-01-18T10:47:52.821Z,983.11
2018-01-18T10:49:02.685Z,984.12
2018-01-18T10:50:11.889Z,983.04
2018-01-18T10:51:21.371Z,983.97
2018-01-18T10:52:30.853Z,983.59
2018-01-18T10:53:40.067Z,983.57
2018-01-18T10:54:49.545Z,983.6
2018-01-18T10:55:58.483Z,984.18
2018-01-18T10:57:07.447Z,983.96
2018-01-18T10:58:17.199Z,983.84
2018-01-18T10:59:25.896Z,984
2018-01-18T11:00:35.623Z,984.2
2018-01-18T11:01:45.096Z,984.43
2018-01-18T11:02:54.415Z,983.85
2018-01-18T11:04:03.994Z,984.41
2018-01-18T11:05:12.860Z,983.98
2018-01-18T11:06:22.066Z,984.09
2018-01-18T11:07:31.017Z,984.54
2018-01-18T11:08:40.562Z,984.2
2018-01-18T11:09:50.346Z,984.65
2018-01-18T11:10:59.322Z,984.49
2018-01-18T11:12:09.053Z,985.17
2018-01-18T11:13:18.262Z,985.08
2018-01-18T11:14:27.731Z,985.07
2018-01-18T11:15:36.937Z,984.68
2018-01-18T11:16:46.669Z,984.81
2018-01-18T11:17:56.411Z,984.82
2018-01-18T11:19:06.155Z,984.91
2018-01-18T11:20:15.353Z,985.03
2018-01-18T11:21:24.885Z,984.99
2018-01-18T11:22:34.425Z,984.94
2018-01-18T11:23:44.309Z,985.23
2018-01-18T11:24:54.257Z,985.2
2018-01-18T11:26:03.221Z,985.07
2018-01-18T11:27:13.177Z,985.81
2018-01-18T11:28:22.937Z,985.6
2018-01-18T11:29:33.119Z,985.36
2018-01-18T11:30:42.711Z,985.61
2018-01-18T11:31:51.650Z,985.47
2018-01-18T11:33:01.514Z,985.98
2018-01-18T11:34:11.012Z,985.8
2018-01-18T11:35:20.761Z,985.56
2018-01-18T11:36:30.506Z,986.14
2018-01-18T11:37:39.746Z,986.24
2018-01-18T11:38:49.506Z,986.1
2018-01-18T11:39:58.717Z,986.06
2018-01-18T11:41:08.191Z,986.14
2018-01-18T11:42:17.948Z,986.25
2018-01-18T11:43:27.680Z,986.35
2018-01-18T11:44:37.428Z,986.37
2018-01-18T11:45:46.423Z,986.28
2018-01-18T11:46:55.450Z,986.58
2018-01-18T11:48:04.571Z,986.41
2018-01-18T11:49:14.016Z,986.45
2018-01-18T11:50:23.544Z,986.74
2018-01-18T11:51:33.594Z,986.89
2018-01-18T11:52:43.564Z,986.82
2018-01-18T11:53:53.120Z,986.83
2018-01-18T11:55:02.251Z,986.94
2018-01-18T11:56:11.741Z,987.18
2018-01-18T11:57:21.227Z,986.97
2018-01-18T11:58:30.693Z,987
2018-01-18T11:59:40.450Z,987.18
2018-01-18T12:00:49.936Z,987.1
2018-01-18T12:01:59.940Z,987.4
2018-01-18T12:03:09.894Z,987.12
2018-01-18T12:04:19.978Z,987.32
2018-01-18T12:05:29.456Z,987.34
2018-01-18T12:06:38.749Z,987.69
2018-01-18T12:07:47.966Z,987.56
2018-01-18T12:08:57.004Z,987.37
2018-01-18T12:10:07.011Z,987.96
2018-01-18T12:11:16.601Z,987.92
2018-01-18T12:12:26.342Z,987.64
2018-01-18T12:13:36.332Z,987.57
2018-01-18T12:14:46.051Z,988.03
2018-01-18T12:15:55.825Z,987.53
2018-01-18T12:17:05.381Z,987.76
2018-01-18T12:18:15.292Z,987.64
2018-01-18T12:19:24.756Z,987.58
2018-01-18T12:20:33.706Z,987.84
2018-01-18T12:21:43.446Z,987.91
2018-01-18T12:22:52.936Z,988.18
2018-01-18T12:24:02.714Z,987.88
2018-01-18T12:25:12.226Z,988.1
2018-01-18T12:26:22.040Z,988.14
2018-01-18T12:27:31.233Z,988
2018-01-18T12:28:41.235Z,987.87
2018-01-18T12:29:50.444Z,988.06
2018-01-18T12:30:59.680Z,988.3
2018-01-18T12:32:08.658Z,988.33
2018-01-18T12:33:18.527Z,988.31
2018-01-18T12:34:28.591Z,988.23
2018-01-18T12:35:38.578Z,988.25
2018-01-18T12:36:48.586Z,988.47
2018-01-18T12:37:57.847Z,988.46
2018-01-18T12:39:07.862Z,988.25
2018-01-18T12:40:17.333Z,988.29
2018-01-18T12:41:27.060Z,988.52
2018-01-18T12:42:36.569Z,988.52
2018-01-18T12:43:46.617Z,988.44
2018-01-18T12:44:55.904Z,988.62
2018-01-18T12:46:05.384Z,988.56
2018-01-18T12:47:15.135Z,988.74
2018-01-18T12:48:24.919Z,988.7
2018-01-18T12:49:34.572Z,989.01
2018-01-18T12:50:44.268Z,989.07
2018-01-18T12:51:53.512Z,989.42
2018-01-18T12:53:03.505Z,988.92
2018-01-18T12:54:12.982Z,988.94
2018-01-18T12:55:22.176Z,989.05
2018-01-18T12:56:31.450Z,989.22
2018-01-18T12:57:40.919Z,989.05
2018-01-18T12:58:50.438Z,989.13
2018-01-18T13:00:00.025Z,989.02
2018-01-18T13:01:09.373Z,989.05
2018-01-18T13:02:18.633Z,989.17
2018-01-18T13:03:28.278Z,989.12
2018-01-18T13:04:37.884Z,989.28
2018-01-18T13:05:47.804Z,989.14
2018-01-18T13:06:57.281Z,989.18
2018-01-18T13:08:07.336Z,989.2
2018-01-18T13:09:16.912Z,989.25
2018-01-18T13:10:26.645Z,989.27
2018-01-18T13:11:36.435Z,989.5
2018-01-18T13:12:45.645Z,989.42
2018-01-18T13:13:55.136Z,989.72
2018-01-18T13:15:05.223Z,989.57
2018-01-18T13:16:14.807Z,989.51
2018-01-18T13:17:24.327Z,990.08
2018-01-18T13:18:33.531Z,989.61
2018-01-18T13:19:43.292Z,989.55
2018-01-18T13:20:53.133Z,990.04
2018-01-18T13:22:02.698Z,989.79
2018-01-18T13:23:11.813Z,989.78
2018-01-18T13:24:21.293Z,989.71
2018-01-18T13:25:31.250Z,989.83
2018-01-18T13:26:41.067Z,989.72
2018-01-18T13:27:51.426Z,989.9
2018-01-18T13:29:00.631Z,990.23
2018-01-18T13:30:10.666Z,989.94
2018-01-18T13:31:20.406Z,990.16
2018-01-18T13:32:30.266Z,989.9
2018-01-18T13:33:40.222Z,990.18
2018-01-18T13:34:49.951Z,990.1
2018-01-18T13:35:59.945Z,990.28
2018-01-18T13:37:09.413Z,990.45
2018-01-18T13:38:19.453Z,990.27
2018-01-18T13:39:28.749Z,990.25
2018-01-18T13:40:38.964Z,990.4
2018-01-18T13:41:48.740Z,990.33
2018-01-18T13:42:58.506Z,990.5
2018-01-18T13:44:07.741Z,990.35
2018-01-18T13:45:17.267Z,990.52
2018-01-18T13:46:26.762Z,990.71
2018-01-18T13:47:35.977Z,990.52
2018-01-18T13:48:45.560Z,990.79
2018-01-18T13:49:54.874Z,990.85
2018-01-18T13:51:04.870Z,990.63
2018-01-18T13:52:14.063Z,990.59
2018-01-18T13:53:23.572Z,990.65
2018-01-18T13:54:33.562Z,990.62
2018-01-18T13:55:43.298Z,990.8
2018-01-18T13:56:52.503Z,990.74
2018-01-18T13:58:01.707Z,990.73
2018-01-18T13:59:11.439Z,990.83
2018-01-18T14:00:20.914Z,990.8
2018-01-18T14:01:29.848Z,990.99
2018-01-18T14:02:39.670Z,991.03
2018-01-18T14:03:49.343Z,990.92
2018-01-18T14:04:58.857Z,990.88
2018-01-18T14:06:08.867Z,990.98
2018-01-18T14:07:18.980Z,990.86
2018-01-18T14:08:28.479Z,991.01
2018-01-18T14:09:37.814Z,990.92
2018-01-18T14:10:47.333Z,991.03
2018-01-18T14:11:57.368Z,991.12
2018-01-18T14:13:06.892Z,991.08
2018-01-18T14:14:16.936Z,991.24
2018-01-18T14:15:26.668Z,991.07
2018-01-18T14:16:36.131Z,991.15
2018-01-18T14:17:45.929Z,991.14
2018-01-18T14:18:55.389Z,991.23
2018-01-18T14:20:04.948Z,991.3
2018-01-18T14:21:14.255Z,991.2
2018-01-18T14:22:23.369Z,991.35
2018-01-18T14:23:32.857Z,991.31
2018-01-18T14:24:42.605Z,991.23
2018-01-18T14:25:51.779Z,991.31
2018-01-18T14:27:01.030Z,991.33
2018-01-18T14:28:10.766Z,991.36
2018-01-18T14:29:19.975Z,991.28
2018-01-18T14:30:29.497Z,991.35
2018-01-18T14:31:39.087Z,991.32